Time;durP1;ratioP1;P1;durP2;ratioP2;P2;SDS_P1;SDS_P2;PMS_P1;PMS_P2;Temp;Humidity;BMP_temperature;BMP_pressure;BME280_temperature;BME280_humidity;BME280_pressure;Samples;Min_cycle;Max_cycle;Signal;HPM_P1;HPM_P2
2022/12/14 00:00:20;;;;;;;22.03;10.90;;;;;;;-3.80;100.00;98036.03;5076560;28;20210;-77
2022/12/14 00:02:49;;;;;;;20.33;10.83;;;;;;;-3.77;100.00;98023.00;5075547;28;20204;-78
2022/12/14 00:05:18;;;;;;;24.10;12.47;;;;;;;-3.71;100.00;98018.59;5072051;28;20208;-78
2022/12/14 00:07:46;;;;;;;21.53;11.17;;;;;;;-3.64;100.00;98026.16;5075882;28;20200;-77
2022/12/14 00:10:16;;;;;;;23.40;11.43;;;;;;;-3.55;100.00;98018.16;5063248;28;20204;-77
2022/12/14 00:12:47;;;;;;;21.40;10.90;;;;;;;-3.58;100.00;98012.19;5072612;28;20185;-77
2022/12/14 00:15:15;;;;;;;21.10;11.17;;;;;;;-3.67;100.00;98010.69;5072368;28;20200;-77
2022/12/14 00:17:45;;;;;;;20.23;10.73;;;;;;;-4.01;100.00;98005.53;5023797;28;20200;-78
2022/12/14 00:20:14;;;;;;;20.60;11.23;;;;;;;-4.19;100.00;98009.41;5071070;28;20228;-78
2022/12/14 00:22:42;;;;;;;19.03;10.97;;;;;;;-4.24;100.00;98008.69;5035575;28;20192;-77
2022/12/14 00:25:10;;;;;;;24.27;11.53;;;;;;;-3.98;100.00;98014.94;5096289;28;20203;-77
2022/12/14 00:27:43;;;;;;;21.67;12.23;;;;;;;-3.97;100.00;98011.47;5112673;28;20267;-77
2022/12/14 00:30:15;;;;;;;22.03;11.43;;;;;;;-3.95;100.00;98017.47;5112790;27;20558;-77
2022/12/14 00:32:44;;;;;;;20.87;11.70;;;;;;;-3.97;100.00;98016.63;5120318;28;20198;-77
2022/12/14 00:35:15;;;;;;;26.43;12.43;;;;;;;-4.04;100.00;98014.22;5116831;28;20203;-77
2022/12/14 00:37:45;;;;;;;21.67;12.10;;;;;;;-4.00;100.00;98008.97;5114764;28;20311;-78
2022/12/14 00:40:17;;;;;;;22.53;11.37;;;;;;;-3.99;100.00;98018.44;5095988;28;20665;-77
2022/12/14 00:42:45;;;;;;;22.83;10.87;;;;;;;-4.05;100.00;98011.69;5111768;28;20194;-78
2022/12/14 00:45:15;;;;;;;22.07;10.80;;;;;;;-3.94;100.00;98016.59;5114642;28;20195;-78
2022/12/14 00:47:44;;;;;;;24.83;11.63;;;;;;;-3.89;100.00;98019.91;5114741;28;20194;-78
2022/12/14 00:50:12;;;;;;;21.60;11.33;;;;;;;-3.86;100.00;98015.50;5111940;28;20302;-78
2022/12/14 00:52:40;;;;;;;20.37;10.60;;;;;;;-3.88;100.00;98017.25;5095846;28;20187;-78
2022/12/14 00:55:10;;;;;;;20.17;10.77;;;;;;;-3.87;100.00;98012.94;5076315;28;20187;-78
2022/12/14 00:57:40;;;;;;;20.20;10.10;;;;;;;-3.82;100.00;98011.09;5115506;27;20195;-78
2022/12/14 01:00:18;;;;;;;19.63;10.27;;;;;;;-3.76;100.00;98010.97;5114102;28;20221;-78
2022/12/14 01:02:47;;;;;;;19.27;9.30;;;;;;;-3.76;100.00;98016.13;5093943;28;20191;-78
2022/12/14 01:05:17;;;;;;;19.27;9.73;;;;;;;-3.72;100.00;98011.72;5112008;28;20222;-78
2022/12/14 01:07:45;;;;;;;18.27;10.10;;;;;;;-3.77;100.00;98011.81;5071194;28;20204;-78
2022/12/14 01:10:16;;;;;;;20.67;9.93;;;;;;;-3.70;100.00;98015.97;5066527;28;20204;-78
2022/12/14 01:12:44;;;;;;;22.20;10.50;;;;;;;-3.72;100.00;98017.75;5074160;28;20204;-78
2022/12/14 01:15:13;;;;;;;16.87;9.80;;;;;;;-3.77;100.00;98027.34;5070121;28;20250;-78
2022/12/14 01:17:43;;;;;;;22.87;10.53;;;;;;;-3.71;100.00;98027.19;5071276;28;20197;-78
2022/12/14 01:20:12;;;;;;;18.17;10.17;;;;;;;-3.78;100.00;98023.06;5069738;28;20684;-78
2022/12/14 01:22:43;;;;;;;17.70;9.00;;;;;;;-3.73;100.00;98018.63;5069235;28;20252;-78
2022/12/14 01:25:12;;;;;;;17.10;10.00;;;;;;;-3.76;100.00;98013.56;5071282;28;20227;-78
2022/12/14 01:27:40;;;;;;;16.13;9.33;;;;;;;-3.68;100.00;98021.94;5035182;28;20235;-78
2022/12/14 01:30:09;;;;;;;18.07;9.97;;;;;;;-3.76;100.00;98011.81;5068812;28;20197;-78
2022/12/14 01:32:39;;;;;;;19.50;9.80;;;;;;;-3.78;100.00;98005.81;5068569;28;20203;-77
2022/12/14 01:35:09;;;;;;;19.77;10.37;;;;;;;-3.75;100.00;97997.97;5067564;28;20207;-77
2022/12/14 01:37:37;;;;;;;17.27;9.97;;;;;;;-3.85;100.00;97999.09;5067270;28;20227;-78
2022/12/14 01:40:06;;;;;;;19.67;10.57;;;;;;;-3.83;100.00;97989.56;5109388;28;20255;-77
2022/12/14 01:42:36;;;;;;;18.70;10.07;;;;;;;-3.82;100.00;97993.00;5113694;28;20216;-77
2022/12/14 01:45:07;;;;;;;17.57;9.47;;;;;;;-3.79;100.00;97991.19;5113431;28;20209;-77
2022/12/14 01:47:41;;;;;;;19.93;10.30;;;;;;;-3.80;100.00;97989.47;5110327;28;20218;-77
2022/12/14 01:50:22;;;;;;;16.70;9.90;;;;;;;-3.89;100.00;97981.94;5107661;28;20228;-77
2022/12/14 01:52:56;;;;;;;19.93;10.10;;;;;;;-3.67;100.00;97979.66;5109132;28;20191;-77
2022/12/14 01:55:29;;;;;;;19.27;10.27;;;;;;;-3.73;100.00;97966.06;5110978;28;20550;-77
2022/12/14 01:58:01;;;;;;;18.27;9.70;;;;;;;-3.64;100.00;97958.91;5113017;28;20240;-77
2022/12/14 02:00:29;;;;;;;17.13;9.93;;;;;;;-3.65;100.00;97940.84;5113246;28;20259;-77
2022/12/14 02:03:02;;;;;;;16.90;9.50;;;;;;;-3.70;100.00;97935.78;5113177;28;20599;-77
2022/12/14 02:05:35;;;;;;;18.43;9.93;;;;;;;-3.83;100.00;97926.66;5112918;28;20198;-77
2022/12/14 02:08:05;;;;;;;19.07;9.90;;;;;;;-3.62;100.00;97923.47;5112900;28;20214;-77
2022/12/14 02:10:35;;;;;;;14.93;8.87;;;;;;;-3.69;100.00;97921.94;5113116;28;20187;-78
2022/12/14 02:13:08;;;;;;;16.30;9.00;;;;;;;-3.95;100.00;97917.50;5112776;28;20194;-77
2022/12/14 02:15:38;;;;;;;16.67;9.03;;;;;;;-3.89;100.00;97917.31;5070337;28;20184;-77
2022/12/14 02:18:11;;;;;;;14.47;7.83;;;;;;;-3.81;100.00;97922.28;5025163;28;20252;-78
2022/12/14 02:20:49;;;;;;;15.50;8.33;;;;;;;-3.85;100.00;97907.75;5025549;28;20253;-77
2022/12/14 02:23:41;;;;;;;14.00;7.87;;;;;;;-3.81;100.00;97910.19;5030474;28;20649;-78
2022/12/14 02:26:58;;;;;;;15.00;7.70;;;;;;;-3.69;100.00;97903.84;5028597;28;20217;-78
2022/12/14 02:30:14;;;;;;;14.60;7.83;;;;;;;-3.71;100.00;97897.03;5030377;28;20189;-78
2022/12/14 02:33:02;;;;;;;16.17;8.73;;;;;;;-3.58;100.00;97877.66;5013758;28;20276;-78
2022/12/14 02:35:41;;;;;;;14.67;8.33;;;;;;;-3.59;100.00;97863.03;5036853;28;20290;-78
2022/12/14 02:38:20;;;;;;;14.27;8.40;;;;;;;-3.62;100.00;97860.53;5070362;28;20195;-78
2022/12/14 02:41:01;;;;;;;15.07;8.00;;;;;;;-3.80;100.00;97854.16;5070481;28;20218;-78
2022/12/14 02:43:36;;;;;;;14.90;8.17;;;;;;;-3.85;100.00;97851.69;5068536;28;20697;-78
2022/12/14 02:46:15;;;;;;;15.13;8.17;;;;;;;-3.80;100.00;97846.38;5073572;28;20203;-78
2022/12/14 02:48:50;;;;;;;14.30;8.33;;;;;;;-3.85;100.00;97840.50;5105418;28;20252;-79
2022/12/14 02:51:24;;;;;;;14.53;8.23;;;;;;;-3.81;100.00;97834.34;5112717;28;20194;-79
2022/12/14 02:53:57;;;;;;;15.80;7.83;;;;;;;-3.91;100.00;97838.94;5112676;28;20229;-79
2022/12/14 02:56:33;;;;;;;13.37;8.03;;;;;;;-3.88;100.00;97833.66;5106555;28;20260;-79
2022/12/14 02:59:03;;;;;;;15.47;8.33;;;;;;;-3.90;100.00;97832.88;5109219;28;20221;-77
2022/12/14 03:01:36;;;;;;;16.30;8.47;;;;;;;-3.90;100.00;97829.44;5110552;28;20244;-78
2022/12/14 03:04:06;;;;;;;15.23;7.87;;;;;;;-3.91;100.00;97825.16;5108824;28;20206;-77
2022/12/14 03:06:36;;;;;;;14.30;8.00;;;;;;;-3.92;100.00;97819.13;5111417;28;20221;-78
2022/12/14 03:09:07;;;;;;;14.83;8.73;;;;;;;-3.93;100.00;97822.63;5112301;28;20198;-77
2022/12/14 03:11:44;;;;;;;13.87;8.00;;;;;;;-3.80;100.00;97813.59;5112996;28;20236;-77
2022/12/14 03:14:18;;;;;;;13.37;7.60;;;;;;;-3.84;100.00;97804.25;5108078;28;20230;-77
2022/12/14 03:16:52;;;;;;;14.97;8.30;;;;;;;-3.79;100.00;97812.72;5112189;28;20245;-77
2022/12/14 03:19:25;;;;;;;14.77;7.80;;;;;;;-3.80;100.00;97798.09;5108026;28;20246;-77
2022/12/14 03:21:58;;;;;;;15.50;8.20;;;;;;;-3.89;100.00;97807.84;5112168;28;20261;-77
2022/12/14 03:24:30;;;;;;;15.77;8.10;;;;;;;-3.88;100.00;97801.78;5109757;28;20243;-77
2022/12/14 03:27:02;;;;;;;12.23;7.57;;;;;;;-3.91;100.00;97801.88;5107923;28;20219;-77
2022/12/14 03:29:37;;;;;;;14.40;7.90;;;;;;;-3.88;100.00;97805.22;5112145;28;20191;-77
2022/12/14 03:32:12;;;;;;;12.33;7.60;;;;;;;-3.86;100.00;97797.41;5080264;28;20205;-77
2022/12/14 03:34:46;;;;;;;15.83;8.40;;;;;;;-3.91;100.00;97796.72;5115270;28;20195;-78
2022/12/14 03:37:20;;;;;;;16.10;8.30;;;;;;;-3.99;100.00;97788.31;5123708;28;20239;-78
2022/12/14 03:39:48;;;;;;;15.33;8.27;;;;;;;-4.01;100.00;97790.94;5115821;28;20183;-78
2022/12/14 03:42:22;;;;;;;16.37;8.43;;;;;;;-4.07;100.00;97783.34;5110570;28;20203;-78
2022/12/14 03:44:59;;;;;;;15.60;8.23;;;;;;;-4.16;100.00;97799.97;5115777;28;20191;-78
2022/12/14 03:47:51;;;;;;;14.13;7.57;;;;;;;-4.24;100.00;97794.19;5114013;28;20266;-77
2022/12/14 03:50:24;;;;;;;13.80;7.93;;;;;;;-4.35;100.00;97797.03;5109589;28;20214;-78
2022/12/14 03:53:00;;;;;;;13.67;7.97;;;;;;;-4.44;100.00;97786.97;5117887;27;20218;-78
2022/12/14 03:55:35;;;;;;;12.57;7.63;;;;;;;-4.50;100.00;97787.09;5113308;28;20278;-78
2022/12/14 03:58:22;;;;;;;15.90;8.27;;;;;;;-4.51;100.00;97789.75;5052891;28;20197;-78
2022/12/14 04:00:57;;;;;;;13.40;7.37;;;;;;;-4.47;100.00;97797.34;5052812;28;20192;-77
2022/12/14 04:03:35;;;;;;;12.10;7.27;;;;;;;-4.62;100.00;97808.09;5048832;28;20224;-77
2022/12/14 04:06:09;;;;;;;15.97;7.73;;;;;;;-4.61;100.00;97802.88;5050341;28;20196;-77
2022/12/14 04:08:44;;;;;;;13.50;8.07;;;;;;;-4.57;100.00;97790.72;5049763;28;20351;-77
2022/12/14 04:19:53;;;;;;;14.17;8.00;;;;;;;-4.47;100.00;97774.09;5049837;28;20202;-77
2022/12/14 04:22:28;;;;;;;12.73;7.73;;;;;;;-4.48;100.00;97766.41;5074624;28;20187;-78
2022/12/14 04:27:51;;;;;;;12.87;7.27;;;;;;;-4.41;100.00;97767.94;5114919;28;20765;-78
2022/12/14 04:30:20;;;;;;;14.53;8.10;;;;;;;-4.38;100.00;97755.78;5114893;28;20199;-78
2022/12/14 04:32:53;;;;;;;15.20;8.10;;;;;;;-4.18;100.00;97742.31;5109893;28;20203;-78
2022/12/14 04:35:29;;;;;;;13.50;7.67;;;;;;;-4.19;100.00;97734.59;5113570;27;20223;-78
2022/12/14 04:38:04;;;;;;;12.80;7.80;;;;;;;-4.13;100.00;97740.44;5115091;28;20232;-77
2022/12/14 04:40:37;;;;;;;13.27;7.63;;;;;;;-3.98;100.00;97738.31;5114748;28;20189;-78
2022/12/14 04:43:09;;;;;;;14.53;7.70;;;;;;;-4.00;100.00;97732.34;5114603;28;20191;-78
2022/12/14 04:45:42;;;;;;;13.67;7.17;;;;;;;-4.10;100.00;97742.09;5107488;28;20203;-78
2022/12/14 04:48:20;;;;;;;15.73;8.07;;;;;;;-3.98;100.00;97746.91;5110557;28;20246;-77
2022/12/14 04:50:56;;;;;;;14.00;7.37;;;;;;;-4.00;100.00;97758.19;5114473;28;20209;-77
2022/12/14 04:53:30;;;;;;;15.43;7.67;;;;;;;-3.96;100.00;97760.63;5111684;28;20252;-77
2022/12/14 04:56:05;;;;;;;14.53;8.60;;;;;;;-3.98;100.00;97761.56;5114548;28;20191;-78
2022/12/14 04:58:35;;;;;;;12.53;7.73;;;;;;;-4.09;100.00;97756.72;5114357;28;20191;-77
2022/12/14 05:01:21;;;;;;;20.57;9.00;;;;;;;-4.06;100.00;97754.03;5115786;27;20198;-77
2022/12/14 05:03:58;;;;;;;16.47;8.77;;;;;;;-4.06;100.00;97757.44;5113144;28;20187;-78
2022/12/14 05:06:38;;;;;;;16.30;8.83;;;;;;;-4.11;100.00;97753.31;5095174;28;20187;-78
2022/12/14 05:09:18;;;;;;;14.83;8.37;;;;;;;-4.16;100.00;97748.25;5112733;28;20264;-77
2022/12/14 05:11:52;;;;;;;13.20;7.83;;;;;;;-4.08;100.00;97743.72;5113825;28;20226;-77
2022/12/14 05:14:29;;;;;;;14.00;7.83;;;;;;;-4.10;100.00;97740.34;5114244;28;20217;-78
2022/12/14 05:16:58;;;;;;;13.27;7.23;;;;;;;-4.07;100.00;97745.44;5113980;28;20190;-77
2022/12/14 05:19:33;;;;;;;14.77;8.13;;;;;;;-4.03;100.00;97747.06;5112729;28;20205;-78
2022/12/14 05:22:06;;;;;;;13.93;7.10;;;;;;;-4.07;100.00;97748.00;5111036;28;20231;-78
2022/12/14 05:24:34;;;;;;;17.20;8.00;;;;;;;-4.00;100.00;97743.53;5109949;28;20183;-78
2022/12/14 05:27:03;;;;;;;21.20;10.90;;;;;;;-4.03;100.00;97744.47;5116096;27;20225;-78
2022/12/14 05:29:31;;;;;;;22.83;10.17;;;;;;;-3.98;100.00;97746.91;5109539;28;20222;-78
2022/12/14 05:32:00;;;;;;;15.63;8.60;;;;;;;-4.01;100.00;97744.41;5127571;27;20222;-78
2022/12/14 05:34:29;;;;;;;16.87;8.07;;;;;;;-3.98;100.00;97733.13;5075570;27;20255;-79
2022/12/14 05:37:00;;;;;;;13.73;8.03;;;;;;;-3.97;100.00;97724.47;5126540;27;20198;-78
2022/12/14 05:39:31;;;;;;;13.47;7.30;;;;;;;-3.92;100.00;97723.47;5128646;27;20194;-78
2022/12/14 05:42:00;;;;;;;16.50;7.23;;;;;;;-4.00;100.00;97716.81;5127703;27;20187;-78
2022/12/14 05:44:28;;;;;;;27.33;14.90;;;;;;;-3.99;100.00;97710.75;5127204;27;20194;-77
2022/12/14 05:46:56;;;;;;;26.97;13.10;;;;;;;-3.94;100.00;97701.13;5081367;27;20680;-78
2022/12/14 05:49:25;;;;;;;19.23;9.70;;;;;;;-3.91;100.00;97699.31;5124590;27;20268;-78
2022/12/14 05:51:54;;;;;;;15.40;8.23;;;;;;;-3.78;100.00;97698.03;5089997;28;20192;-78
2022/12/14 05:54:22;;;;;;;16.87;10.73;;;;;;;-3.83;100.00;97699.94;5088339;28;20286;-78
2022/12/14 05:56:52;;;;;;;22.93;13.43;;;;;;;-3.86;100.00;97689.69;5087495;28;20199;-78
2022/12/14 05:59:20;;;;;;;28.20;15.53;;;;;;;-3.81;100.00;97684.34;5087235;28;20196;-78
2022/12/14 06:01:50;;;;;;;35.23;17.00;;;;;;;-3.76;100.00;97680.75;5086822;28;20200;-78
2022/12/14 06:04:20;;;;;;;15.23;9.17;;;;;;;-3.56;100.00;97681.88;5081811;28;20298;-78
2022/12/14 06:06:49;;;;;;;28.37;17.43;;;;;;;-3.48;100.00;97662.59;5088268;28;20278;-78
2022/12/14 06:09:17;;;;;;;14.83;9.20;;;;;;;-3.48;100.00;97674.69;5086942;28;20218;-78
2022/12/14 06:11:48;;;;;;;13.23;8.23;;;;;;;-3.83;100.00;97661.13;5110769;28;20198;-78
2022/12/14 06:14:19;;;;;;;11.20;6.77;;;;;;;-3.85;100.00;97662.94;5112880;27;20244;-78
2022/12/14 06:16:47;;;;;;;12.53;7.77;;;;;;;-3.78;100.00;97659.22;5110850;28;20203;-78
2022/12/14 06:19:16;;;;;;;14.97;7.90;;;;;;;-3.65;100.00;97656.28;5111883;28;20222;-78
2022/12/14 06:21:47;;;;;;;12.80;8.33;;;;;;;-3.70;100.00;97651.25;5112608;28;20287;-78
2022/12/14 06:24:15;;;;;;;19.37;12.40;;;;;;;-3.65;100.00;97653.69;5108894;28;20252;-78
2022/12/14 06:26:44;;;;;;;15.30;8.73;;;;;;;-3.61;100.00;97656.13;5112679;28;20198;-77
2022/12/14 06:29:16;;;;;;;16.53;8.23;;;;;;;-3.59;100.00;97643.97;5114866;27;20211;-77
2022/12/14 06:31:48;;;;;;;12.70;7.53;;;;;;;-3.57;100.00;97644.81;5113142;28;20248;-78
2022/12/14 06:34:18;;;;;;;24.37;15.30;;;;;;;-3.63;100.00;97633.81;5110820;28;20267;-78
2022/12/14 06:36:50;;;;;;;25.67;13.00;;;;;;;-3.50;100.00;97637.66;5110183;28;20199;-78
2022/12/14 06:39:19;;;;;;;15.20;9.33;;;;;;;-3.54;100.00;97636.09;5112116;28;20206;-78
2022/12/14 06:41:50;;;;;;;13.97;8.13;;;;;;;-3.56;100.00;97633.56;5120668;28;20187;-77
2022/12/14 06:44:20;;;;;;;15.23;7.80;;;;;;;-3.52;100.00;97626.53;5114770;28;20191;-77
2022/12/14 06:46:50;;;;;;;15.27;7.73;;;;;;;-3.50;100.00;97623.00;5112635;28;20191;-77
2022/12/14 06:49:19;;;;;;;13.30;7.77;;;;;;;-3.42;100.00;97607.22;5104097;28;20673;-77
2022/12/14 06:51:50;;;;;;;14.77;9.07;;;;;;;-3.60;100.00;97608.66;5112115;28;20220;-78
2022/12/14 06:54:19;;;;;;;14.07;8.30;;;;;;;-3.48;100.00;97603.06;5114999;27;20247;-77
2022/12/14 06:56:48;;;;;;;15.83;8.40;;;;;;;-3.36;100.00;97603.59;5111635;27;20195;-78
2022/12/14 06:59:17;;;;;;;16.30;9.30;;;;;;;-3.51;100.00;97600.59;5115967;27;20218;-78
2022/12/14 07:01:46;;;;;;;13.53;8.70;;;;;;;-3.38;100.00;97611.38;5114159;28;20232;-77
2022/12/14 07:04:21;;;;;;;15.20;9.53;;;;;;;-3.42;100.00;97602.03;5097149;28;20205;-78
2022/12/14 07:06:49;;;;;;;15.10;8.80;;;;;;;-3.43;100.00;97602.94;5117940;28;20234;-77
2022/12/14 07:09:18;;;;;;;14.97;8.43;;;;;;;-3.41;100.00;97593.38;5119216;28;20194;-77
2022/12/14 07:11:50;;;;;;;13.67;8.67;;;;;;;-3.43;100.00;97590.00;5119108;28;20191;-77
2022/12/14 07:14:18;;;;;;;15.27;8.83;;;;;;;-3.38;100.00;97593.25;5117066;28;20241;-78
2022/12/14 07:16:46;;;;;;;13.27;8.20;;;;;;;-3.43;100.00;97595.19;5111943;28;20227;-78
2022/12/14 07:19:19;;;;;;;13.93;7.63;;;;;;;-3.38;100.00;97582.91;5115469;27;20218;-79
2022/12/14 07:21:47;;;;;;;11.63;7.00;;;;;;;-3.31;100.00;97586.16;5080590;28;20244;-78
2022/12/14 07:24:16;;;;;;;14.47;7.47;;;;;;;-3.32;100.00;97587.06;5116212;28;20191;-77
2022/12/14 07:26:45;;;;;;;11.77;7.03;;;;;;;-3.31;100.00;97605.13;5112424;28;20203;-78
2022/12/14 07:29:15;;;;;;;11.97;7.47;;;;;;;-3.36;100.00;97601.84;5115846;28;20195;-77
2022/12/14 07:31:44;;;;;;;13.53;7.10;;;;;;;-3.29;100.00;97600.72;5115785;28;20191;-77
2022/12/14 07:34:18;;;;;;;12.10;7.30;;;;;;;-3.30;100.00;97601.63;5114281;28;20183;-77
2022/12/14 07:36:49;;;;;;;12.87;7.40;;;;;;;-3.29;100.00;97599.88;5113809;28;20194;-78
2022/12/14 07:39:19;;;;;;;12.73;7.67;;;;;;;-3.26;100.00;97600.63;5115332;28;20211;-77
2022/12/14 07:41:49;;;;;;;11.10;6.60;;;;;;;-3.27;100.00;97601.53;5112758;28;20195;-78
2022/12/14 07:44:18;;;;;;;12.97;7.40;;;;;;;-3.25;100.00;97599.75;5115794;28;20187;-77
2022/12/14 07:46:48;;;;;;;13.37;7.47;;;;;;;-3.21;100.00;97609.06;5113763;27;20187;-77
2022/12/14 07:49:18;;;;;;;12.13;7.53;;;;;;;-3.16;100.00;97606.34;5114374;28;20195;-77
2022/12/14 07:51:51;;;;;;;11.23;7.00;;;;;;;-3.16;100.00;97601.16;5113345;28;20236;-78
2022/12/14 07:54:20;;;;;;;10.20;6.53;;;;;;;-3.04;100.00;97598.16;5095372;28;20183;-78
2022/12/14 07:56:49;;;;;;;15.63;7.80;;;;;;;-3.00;100.00;97607.50;5079739;28;20198;-78
2022/12/14 07:59:18;;;;;;;15.77;7.77;;;;;;;-3.18;100.00;97597.78;5115396;28;20244;-77
2022/12/14 08:01:46;;;;;;;15.73;8.13;;;;;;;-3.03;100.00;97606.75;5117913;27;20236;-78
2022/12/14 08:04:17;;;;;;;11.87;7.87;;;;;;;-3.04;100.00;97612.84;5113748;28;20244;-77
2022/12/14 08:06:48;;;;;;;20.03;8.43;;;;;;;-3.11;100.00;97609.59;5112947;28;20191;-78
2022/12/14 08:09:18;;;;;;;17.57;8.63;;;;;;;-3.02;100.00;97604.13;5115216;28;20232;-77
2022/12/14 08:11:48;;;;;;;13.20;7.67;;;;;;;-3.00;100.00;97596.28;5113423;28;20278;-78
2022/12/14 08:14:19;;;;;;;15.00;8.47;;;;;;;-3.09;100.00;97605.22;5113535;28;20238;-78
2022/12/14 08:16:48;;;;;;;17.00;8.40;;;;;;;-3.19;100.00;97604.69;5115242;28;20184;-77
2022/12/14 08:19:20;;;;;;;13.67;7.90;;;;;;;-3.04;100.00;97615.44;5095197;28;20198;-78
2022/12/14 08:21:49;;;;;;;16.67;8.53;;;;;;;-2.96;100.00;97619.44;5062576;28;20258;-78
2022/12/14 08:24:18;;;;;;;12.53;7.20;;;;;;;-3.03;100.00;97619.72;5103092;28;20666;-77
2022/12/14 08:26:47;;;;;;;13.37;7.20;;;;;;;-3.01;100.00;97625.66;5107705;28;20187;-78
2022/12/14 08:29:17;;;;;;;12.00;7.13;;;;;;;-3.13;100.00;97628.69;5110202;28;20210;-79
2022/12/14 08:31:46;;;;;;;13.13;7.30;;;;;;;-3.07;100.00;97631.09;5111695;28;20199;-79
2022/12/14 08:34:20;;;;;;;14.93;7.03;;;;;;;-3.15;100.00;97631.34;5110729;28;20720;-79
2022/12/14 08:36:52;;;;;;;11.90;7.20;;;;;;;-3.09;100.00;97625.09;5108253;28;20203;-77
2022/12/14 08:39:21;;;;;;;11.73;7.13;;;;;;;-3.14;100.00;97633.03;5110905;28;20195;-77
2022/12/14 08:41:56;;;;;;;14.20;7.73;;;;;;;-3.17;100.00;97628.81;5113307;28;20767;-78
2022/12/14 08:44:24;;;;;;;12.57;7.20;;;;;;;-3.00;100.00;97625.63;5114789;28;20304;-79
2022/12/14 08:46:52;;;;;;;13.37;7.83;;;;;;;-2.92;100.00;97635.72;5111633;28;20228;-78
2022/12/14 08:49:22;;;;;;;10.77;7.00;;;;;;;-2.88;100.00;97626.97;5110800;28;20222;-78
2022/12/14 08:51:59;;;;;;;17.53;10.87;;;;;;;-2.81;100.00;97620.63;5112489;28;20193;-78
2022/12/14 08:54:27;;;;;;;14.50;7.33;;;;;;;-2.77;100.00;97617.06;5107780;28;20190;-78
2022/12/14 08:56:55;;;;;;;11.67;7.07;;;;;;;-2.77;100.00;97624.81;5103542;28;20248;-78
2022/12/14 08:59:24;;;;;;;13.03;7.50;;;;;;;-2.80;100.00;97629.25;5111789;28;20263;-78
2022/12/14 09:02:12;;;;;;;11.10;7.20;;;;;;;-2.72;100.00;97624.66;5114573;28;20202;-77
2022/12/14 09:04:41;;;;;;;15.80;9.03;;;;;;;-2.78;100.00;97617.97;5112983;28;20199;-77
2022/12/14 09:07:11;;;;;;;36.33;20.83;;;;;;;-2.72;100.00;97628.09;5114236;28;20233;-77
2022/12/14 09:09:39;;;;;;;14.67;8.33;;;;;;;-2.67;100.00;97621.00;5114073;28;20287;-78
2022/12/14 09:12:08;;;;;;;13.00;7.27;;;;;;;-2.63;100.00;97617.41;5114240;28;20195;-78
2022/12/14 09:14:37;;;;;;;12.77;7.23;;;;;;;-2.56;100.00;97615.44;5111572;28;20199;-77
2022/12/14 09:17:05;;;;;;;13.20;8.67;;;;;;;-2.51;100.00;97616.13;5114159;28;20195;-78
2022/12/14 09:19:36;;;;;;;13.00;7.73;;;;;;;-2.48;100.00;97622.94;5111590;28;20202;-77
2022/12/14 09:22:06;;;;;;;13.43;7.47;;;;;;;-2.55;100.00;97626.66;5108973;28;20237;-79
2022/12/14 09:24:35;;;;;;;12.17;7.20;;;;;;;-2.53;100.00;97623.09;5095306;28;20694;-78
2022/12/14 09:27:04;;;;;;;14.77;7.73;;;;;;;-2.47;100.00;97622.88;5115709;27;20199;-78
2022/12/14 09:29:33;;;;;;;13.43;7.63;;;;;;;-2.35;100.00;97629.34;5113948;28;20260;-78
2022/12/14 09:32:01;;;;;;;16.17;10.20;;;;;;;-2.16;100.00;97626.91;5109110;28;20227;-78
2022/12/14 09:34:34;;;;;;;16.07;10.10;;;;;;;-2.03;100.00;97641.09;5110455;28;20199;-78
2022/12/14 09:37:06;;;;;;;12.80;7.30;;;;;;;-2.11;100.00;97640.56;5113815;28;20677;-78
2022/12/14 09:39:36;;;;;;;22.60;14.40;;;;;;;-1.94;100.00;97635.56;5113319;28;20359;-78
2022/12/14 09:42:19;;;;;;;14.27;9.07;;;;;;;-1.83;100.00;97635.16;5113519;28;20210;-78
2022/12/14 09:45:00;;;;;;;13.70;7.23;;;;;;;-1.74;100.00;97627.88;5113219;28;20226;-78
2022/12/14 09:47:36;;;;;;;15.77;10.10;;;;;;;-1.70;100.00;97630.31;5090390;28;20195;-78
2022/12/14 09:50:07;;;;;;;22.60;14.40;;;;;;;-1.58;100.00;97625.50;5066990;28;20195;-78
2022/12/14 09:52:39;;;;;;;29.50;17.90;;;;;;;-1.78;100.00;97635.81;5063224;28;20210;-78
2022/12/14 09:55:20;;;;;;;15.63;9.07;;;;;;;-1.90;100.00;97620.75;5065639;28;20258;-78
2022/12/14 09:57:54;;;;;;;11.43;6.83;;;;;;;-1.63;100.00;97616.22;5070506;28;20643;-78
2022/12/14 10:00:22;;;;;;;13.40;7.17;;;;;;;-1.56;100.00;97622.81;5068325;28;20228;-77
2022/12/14 10:03:04;;;;;;;11.63;7.07;;;;;;;-1.66;100.00;97621.50;5063724;28;20242;-77
2022/12/14 10:05:52;;;;;;;11.87;7.20;;;;;;;-1.47;100.00;97628.50;5070625;28;20275;-77
2022/12/14 10:08:28;;;;;;;10.87;6.97;;;;;;;-1.46;100.00;97612.00;5094467;28;20202;-79
2022/12/14 10:11:07;;;;;;;10.97;7.27;;;;;;;-1.37;100.00;97608.19;5112964;28;20191;-78
2022/12/14 10:13:47;;;;;;;12.83;6.77;;;;;;;-1.32;100.00;97597.63;5110381;28;20229;-78
2022/12/14 10:16:25;;;;;;;10.33;6.57;;;;;;;-1.11;100.00;97604.50;5109863;28;20203;-78
2022/12/14 10:19:13;;;;;;;10.27;7.20;;;;;;;-1.00;100.00;97601.44;5112038;28;20199;-78
2022/12/14 10:21:49;;;;;;;11.13;7.03;;;;;;;-1.04;100.00;97594.72;5112429;28;20739;-79
2022/12/14 10:24:22;;;;;;;12.13;7.83;;;;;;;-1.05;100.00;97593.88;5113027;28;20237;-78
2022/12/14 10:26:54;;;;;;;12.27;6.80;;;;;;;-1.12;100.00;97591.59;5113165;28;20209;-78
2022/12/14 10:29:31;;;;;;;12.87;7.10;;;;;;;-1.01;100.00;97594.56;5112827;28;20198;-78
2022/12/14 10:32:11;;;;;;;11.70;7.20;;;;;;;-0.96;100.00;97579.66;5117168;28;20252;-78
2022/12/14 10:34:43;;;;;;;13.70;8.03;;;;;;;-0.85;100.00;97576.56;5111991;28;20198;-78
2022/12/14 10:37:25;;;;;;;11.60;7.50;;;;;;;-0.77;100.00;97584.84;5075868;28;20194;-78
2022/12/14 10:40:17;;;;;;;13.03;7.97;;;;;;;-0.60;100.00;97569.38;5117024;28;20323;-78
2022/12/14 10:43:13;;;;;;;15.10;7.40;;;;;;;-0.87;100.00;97574.91;5100269;28;20202;-78
2022/12/14 10:45:51;;;;;;;11.80;7.00;;;;;;;-0.65;100.00;97571.34;5116785;28;20226;-78
2022/12/14 10:48:36;;;;;;;12.43;7.60;;;;;;;-0.76;100.00;97556.22;5110758;28;20191;-78
2022/12/14 10:51:08;;;;;;;12.93;7.43;;;;;;;-0.78;100.00;97552.00;5113855;28;20199;-78
2022/12/14 10:53:42;;;;;;;13.50;8.03;;;;;;;-0.70;100.00;97544.69;5098348;28;20211;-78
2022/12/14 10:56:19;;;;;;;13.00;7.77;;;;;;;-0.78;100.00;97542.44;5116636;28;20183;-78
2022/12/14 10:59:27;;;;;;;10.60;7.17;;;;;;;-0.69;100.00;97543.78;5116554;28;20190;-78
2022/12/14 11:02:12;;;;;;;12.60;7.17;;;;;;;-0.54;100.00;97548.28;5105579;28;20221;-78
2022/12/14 11:04:48;;;;;;;12.13;7.40;;;;;;;-0.45;100.00;97544.44;5115424;28;20195;-78
2022/12/14 11:07:20;;;;;;;13.87;7.73;;;;;;;-0.35;100.00;97538.75;5113534;28;20186;-78
2022/12/14 11:09:49;;;;;;;12.70;7.60;;;;;;;-0.70;100.00;97540.34;5112691;28;20199;-78
2022/12/14 11:12:23;;;;;;;13.90;7.67;;;;;;;-0.43;100.00;97537.41;5111604;28;20211;-78
2022/12/14 11:14:55;;;;;;;13.00;8.00;;;;;;;-0.47;100.00;97535.88;5112130;28;20251;-78
2022/12/14 11:17:38;;;;;;;12.27;7.63;;;;;;;-0.49;100.00;97527.28;5112724;28;20202;-78
2022/12/14 11:20:19;;;;;;;14.23;7.93;;;;;;;-0.33;100.00;97520.47;5115072;27;20199;-78
2022/12/14 11:22:50;;;;;;;13.13;7.43;;;;;;;-0.10;100.00;97506.34;5114613;27;20257;-78
2022/12/14 11:25:29;;;;;;;13.30;8.07;;;;;;;0.20;100.00;97504.06;5115829;28;20194;-78
2022/12/14 11:28:00;;;;;;;15.17;8.13;;;;;;;0.19;100.00;97508.41;5118370;27;20222;-78
2022/12/14 11:30:29;;;;;;;14.27;7.80;;;;;;;0.37;100.00;97508.41;5112327;28;20236;-78
2022/12/14 11:32:59;;;;;;;12.70;7.33;;;;;;;0.66;100.00;97505.19;5114865;28;20195;-78
2022/12/14 11:35:27;;;;;;;15.57;8.47;;;;;;;0.86;100.00;97509.38;5113031;28;20260;-79
2022/12/14 11:38:01;;;;;;;13.87;7.70;;;;;;;0.86;100.00;97510.19;5112980;28;20199;-79
2022/12/14 11:40:29;;;;;;;11.83;7.90;;;;;;;1.32;100.00;97499.13;5109790;28;20195;-79
2022/12/14 11:43:29;;;;;;;12.53;7.30;;;;;;;1.28;100.00;97493.25;5117873;27;20237;-79
2022/12/14 11:45:58;;;;;;;12.77;7.67;;;;;;;1.49;100.00;97493.03;5108451;27;20218;-79
2022/12/14 11:48:29;;;;;;;11.77;7.27;;;;;;;0.89;100.00;97495.34;5091337;28;20199;-78
2022/12/14 11:51:10;;;;;;;12.17;7.57;;;;;;;0.98;100.00;97503.53;5095434;28;20199;-79
2022/12/14 11:53:40;;;;;;;13.67;7.47;;;;;;;1.28;100.00;97492.41;5095121;28;20245;-78